createdAt,value
2017-12-24T00:00:12.115Z,21.83
2017-12-24T00:05:13.429Z,23.50
2017-12-24T00:10:14.839Z,23.40
2017-12-24T00:15:16.153Z,22.43
2017-12-24T00:20:18.258Z,23.17
2017-12-24T00:25:19.457Z,22.90
2017-12-24T00:30:20.805Z,22.83
2017-12-24T00:35:22.172Z,23.87
2017-12-24T00:40:23.602Z,24.07
2017-12-24T00:45:25.446Z,24.10
2017-12-24T00:50:26.716Z,22.73
2017-12-24T00:55:28.186Z,21.67
2017-12-24T01:00:30.360Z,22.00
2017-12-24T01:05:31.592Z,21.97
2017-12-24T01:10:33.740Z,21.83
2017-12-24T01:15:35.981Z,20.70
2017-12-24T01:20:37.361Z,21.20
2017-12-24T01:25:38.646Z,21.53
2017-12-24T01:30:39.990Z,22.20
2017-12-24T01:35:42.147Z,22.83
2017-12-24T01:40:43.661Z,23.43
2017-12-24T01:45:44.984Z,23.53
2017-12-24T01:50:46.218Z,25.30
2017-12-24T01:55:47.520Z,25.97
2017-12-24T02:00:48.814Z,28.03
2017-12-24T02:05:50.141Z,27.20
2017-12-24T02:10:51.459Z,26.60
2017-12-24T02:15:53.291Z,27.47
2017-12-24T02:20:54.651Z,28.47
2017-12-24T02:25:56.867Z,29.90
2017-12-24T02:30:58.562Z,30.57
2017-12-24T02:36:01.503Z,30.33
2017-12-24T02:41:03.794Z,30.20
2017-12-24T02:46:05.366Z,29.00
2017-12-24T02:51:06.899Z,29.93
2017-12-24T02:56:08.418Z,28.67
2017-12-24T03:01:10.008Z,28.97
2017-12-24T03:06:11.485Z,28.80
2017-12-24T03:11:13.623Z,28.27
2017-12-24T03:16:16.426Z,29.20
2017-12-24T03:21:18.856Z,28.87
2017-12-24T03:26:20.475Z,28.93
2017-12-24T03:31:22.917Z,29.77
2017-12-24T03:36:24.177Z,30.10
2017-12-24T03:41:25.599Z,29.10
2017-12-24T03:46:26.834Z,31.17
2017-12-24T03:51:29.240Z,30.83
2017-12-24T03:56:31.602Z,29.57
2017-12-24T04:01:33.084Z,30.90
2017-12-24T04:06:34.801Z,29.83
2017-12-24T04:11:36.450Z,26.77
2017-12-24T04:16:38.713Z,27.90
2017-12-24T04:21:40.149Z,29.23
2017-12-24T04:26:41.682Z,29.43
2017-12-24T04:31:43.254Z,29.83
2017-12-24T04:36:45.314Z,31.60
2017-12-24T04:41:46.838Z,31.67
2017-12-24T04:46:48.506Z,31.37
2017-12-24T04:51:50.049Z,30.10
2017-12-24T04:56:52.695Z,27.90
2017-12-24T05:01:54.503Z,29.33
2017-12-24T05:06:57.223Z,29.23
2017-12-24T05:11:59.355Z,28.23
2017-12-24T05:17:01.284Z,30.30
2017-12-24T05:22:04.368Z,29.83
2017-12-24T05:27:06.531Z,28.93
2017-12-24T05:32:09.409Z,29.83
2017-12-24T05:37:12.673Z,28.50
2017-12-24T05:42:14.782Z,28.83
2017-12-24T05:47:17.954Z,25.13
2017-12-24T05:52:20.822Z,25.67
2017-12-24T05:57:23.916Z,25.53
2017-12-24T06:02:26.609Z,24.77
2017-12-24T06:07:29.547Z,23.00
2017-12-24T06:12:32.126Z,20.47
2017-12-24T06:17:35.303Z,20.53
2017-12-24T06:22:38.524Z,19.63
2017-12-24T06:27:40.851Z,19.00
2017-12-24T06:32:42.696Z,18.57
2017-12-24T06:37:46.052Z,18.80
2017-12-24T06:42:50.207Z,17.27
2017-12-24T06:47:53.744Z,18.30
2017-12-24T06:52:56.761Z,17.87
2017-12-24T06:57:58.810Z,17.90
2017-12-24T07:03:00.946Z,18.70
2017-12-24T07:08:03.503Z,18.70
2017-12-24T07:13:05.237Z,21.30
2017-12-24T07:18:07.966Z,22.50
2017-12-24T07:23:10.545Z,21.97
2017-12-24T07:28:12.494Z,24.00
2017-12-24T07:33:14.949Z,24.53
2017-12-24T07:38:17.489Z,24.80
2017-12-24T07:43:19.905Z,24.93
2017-12-24T07:48:21.097Z,22.80
2017-12-24T07:53:22.269Z,23.03
2017-12-24T07:58:23.846Z,23.87
2017-12-24T08:03:26.217Z,21.63
2017-12-24T08:08:28.023Z,16.97
2017-12-24T08:13:29.698Z,14.23
2017-12-24T08:18:31.664Z,14.43
2017-12-24T08:23:33.767Z,15.60
2017-12-24T08:28:35.297Z,15.00
2017-12-24T08:33:37.026Z,18.13
2017-12-24T08:38:38.852Z,17.80
2017-12-24T08:43:40.414Z,18.60
2017-12-24T08:48:43.453Z,20.50
2017-12-24T08:53:45.235Z,20.83
2017-12-24T08:58:47.232Z,20.90
2017-12-24T09:03:49.454Z,20.63
2017-12-24T09:08:51.248Z,19.60
2017-12-24T09:13:52.502Z,19.20
2017-12-24T09:18:55.854Z,18.93
2017-12-24T09:23:57.496Z,21.13
2017-12-24T09:28:58.780Z,21.90
2017-12-24T09:34:00.052Z,22.23
2017-12-24T09:39:02.375Z,21.90
2017-12-24T09:44:03.954Z,20.00
2017-12-24T09:49:05.481Z,20.03
2017-12-24T09:54:06.998Z,18.60
2017-12-24T09:59:08.210Z,18.60
2017-12-24T10:04:09.443Z,16.17
2017-12-24T10:09:10.665Z,16.90
2017-12-24T10:14:14.480Z,15.93
2017-12-24T10:19:17.150Z,17.83
2017-12-24T10:24:18.845Z,14.87
2017-12-24T10:29:20.138Z,16.13
2017-12-24T10:34:21.399Z,14.17
2017-12-24T10:39:22.847Z,14.50
2017-12-24T10:44:24.389Z,14.90
2017-12-24T10:49:26.594Z,14.87
2017-12-24T10:54:28.836Z,14.10
2017-12-24T10:59:30.127Z,13.60
2017-12-24T11:04:31.416Z,12.93
2017-12-24T11:09:32.692Z,13.27
2017-12-24T11:14:34.344Z,13.07
2017-12-24T11:19:35.721Z,12.83
2017-12-24T11:24:38.412Z,13.00
2017-12-24T11:29:39.958Z,11.67
2017-12-24T11:34:41.649Z,12.07
2017-12-24T11:39:43.640Z,11.10
2017-12-24T11:44:45.565Z,11.93
2017-12-24T11:49:47.009Z,13.43
2017-12-24T11:54:48.798Z,11.63
2017-12-24T11:59:50.679Z,12.23
2017-12-24T12:04:52.392Z,12.07
2017-12-24T12:09:53.973Z,10.43
2017-12-24T12:14:55.273Z,10.73
2017-12-24T12:19:56.594Z,10.17
2017-12-24T12:24:58.650Z,9.10
2017-12-24T12:30:00.267Z,9.50
2017-12-24T12:35:01.773Z,8.27
2017-12-24T12:40:03.548Z,8.83
2017-12-24T12:45:05.066Z,8.07
2017-12-24T12:50:07.803Z,7.50
2017-12-24T12:55:09.247Z,7.93
2017-12-24T13:00:10.501Z,7.53
2017-12-24T13:05:11.707Z,6.87
2017-12-24T13:10:14.062Z,5.90
2017-12-24T13:15:15.548Z,5.60
2017-12-24T13:20:17.199Z,5.23
2017-12-24T13:25:19.339Z,5.23
2017-12-24T13:30:20.879Z,3.93
2017-12-24T13:35:23.162Z,3.87
2017-12-24T13:40:25.513Z,3.83
2017-12-24T13:45:27.361Z,3.50
2017-12-24T13:50:29.021Z,3.87
2017-12-24T13:55:30.577Z,3.50
2017-12-24T14:00:32.179Z,3.53
2017-12-24T14:05:34.359Z,4.50
2017-12-24T14:10:36.018Z,4.50
2017-12-24T14:15:38.552Z,4.13
2017-12-24T14:20:39.901Z,4.87
2017-12-24T14:25:42.928Z,4.40
2017-12-24T14:30:44.870Z,4.57
2017-12-24T14:35:46.232Z,4.90
2017-12-24T14:40:48.097Z,5.83
2017-12-24T14:45:49.450Z,6.27
2017-12-24T14:50:52.086Z,6.37
2017-12-24T14:55:53.541Z,6.83
2017-12-24T15:00:55.867Z,8.13
2017-12-24T15:05:58.789Z,7.20
2017-12-24T15:11:01.715Z,8.00
2017-12-24T15:16:03.393Z,7.60
2017-12-24T15:21:05.630Z,7.80
2017-12-24T15:26:07.203Z,7.93
2017-12-24T15:31:09.595Z,8.20
2017-12-24T15:36:11.334Z,10.63
2017-12-24T15:41:12.753Z,11.07
2017-12-24T15:46:14.596Z,11.37
2017-12-24T15:51:17.994Z,12.70
2017-12-24T15:56:19.706Z,12.93
2017-12-24T16:01:22.083Z,13.23
2017-12-24T16:06:24.596Z,15.07
2017-12-24T16:11:26.024Z,14.30
2017-12-24T16:16:27.885Z,14.63
2017-12-24T16:21:29.284Z,14.97
2017-12-24T16:26:31.270Z,14.10
2017-12-24T16:31:33.113Z,14.43
2017-12-24T16:36:34.738Z,14.80
2017-12-24T16:41:35.951Z,14.10
2017-12-24T16:46:37.905Z,14.80
2017-12-24T16:51:39.517Z,14.70
2017-12-24T16:56:41.000Z,15.33
2017-12-24T17:01:42.409Z,16.07
2017-12-24T17:06:43.664Z,15.73
2017-12-24T17:11:44.937Z,16.70
2017-12-24T17:16:46.964Z,16.80
2017-12-24T17:21:48.312Z,15.77
2017-12-24T17:26:49.529Z,15.37
2017-12-24T17:31:51.478Z,16.77
2017-12-24T17:36:53.766Z,15.30
2017-12-24T17:41:56.108Z,15.13
2017-12-24T17:46:57.724Z,15.40
2017-12-24T17:52:00.157Z,14.33
2017-12-24T17:57:01.450Z,15.60
2017-12-24T18:02:02.708Z,16.40
2017-12-24T18:07:03.976Z,15.33
2017-12-24T18:12:05.274Z,14.33
2017-12-24T18:17:07.187Z,15.50
2017-12-24T18:22:09.250Z,14.67
2017-12-24T18:27:10.918Z,15.70
2017-12-24T18:32:13.290Z,14.40
2017-12-24T18:37:14.498Z,14.80
2017-12-24T18:42:15.701Z,15.40
2017-12-24T18:47:16.910Z,15.30
2017-12-24T18:52:18.206Z,15.10
2017-12-24T18:57:19.469Z,15.70
2017-12-24T19:02:22.177Z,15.80
2017-12-24T19:07:23.443Z,14.97
2017-12-24T19:12:24.691Z,15.50
2017-12-24T19:17:25.974Z,15.30
2017-12-24T19:22:27.291Z,15.63
2017-12-24T19:27:28.519Z,14.13
2017-12-24T19:32:29.910Z,15.30
2017-12-24T19:37:31.310Z,14.53
2017-12-24T19:42:33.422Z,15.33
2017-12-24T19:47:35.515Z,16.30
2017-12-24T19:52:36.925Z,16.50
2017-12-24T19:57:39.482Z,15.80
2017-12-24T20:02:40.939Z,16.80
2017-12-24T20:07:42.214Z,16.57
2017-12-24T20:12:44.311Z,17.90
2017-12-24T20:17:45.648Z,17.40
2017-12-24T20:22:52.974Z,19.70
2017-12-24T20:27:54.676Z,19.47
2017-12-24T20:32:56.044Z,18.30
2017-12-24T20:37:58.216Z,17.70
2017-12-24T20:42:59.560Z,18.37
2017-12-24T20:48:01.091Z,17.40
2017-12-24T20:53:02.737Z,18.43
2017-12-24T20:58:04.184Z,16.03
2017-12-24T21:03:05.635Z,18.13
2017-12-24T21:08:07.450Z,17.27
2017-12-24T21:13:08.898Z,16.23
2017-12-24T21:18:10.350Z,16.50
2017-12-24T21:23:12.007Z,14.70
2017-12-24T21:28:14.276Z,14.47
2017-12-24T21:33:15.657Z,11.77
2017-12-24T21:38:17.018Z,11.20
2017-12-24T21:43:18.429Z,11.13
2017-12-24T21:48:19.789Z,10.63
2017-12-24T21:53:21.183Z,7.93
2017-12-24T21:58:22.512Z,8.33
2017-12-24T22:03:23.919Z,7.60
2017-12-24T22:08:25.304Z,7.43
2017-12-24T22:13:26.732Z,7.63
2017-12-24T22:18:28.155Z,9.07
2017-12-24T22:23:29.483Z,8.63
2017-12-24T22:28:30.849Z,8.40
2017-12-24T22:33:32.162Z,8.40
2017-12-24T22:38:33.581Z,8.67
2017-12-24T22:43:35.053Z,9.33
2017-12-24T22:48:36.582Z,8.80
2017-12-24T22:53:37.978Z,8.83
2017-12-24T22:58:39.369Z,8.93
2017-12-24T23:03:40.725Z,9.20
2017-12-24T23:08:42.881Z,8.40
2017-12-24T23:13:44.252Z,8.70
2017-12-24T23:18:45.828Z,8.23
2017-12-24T23:23:47.141Z,8.00
2017-12-24T23:28:48.386Z,7.90
2017-12-24T23:33:49.597Z,8.20
2017-12-24T23:38:51.537Z,7.97
2017-12-24T23:43:52.761Z,7.70
2017-12-24T23:48:54.694Z,7.30
2017-12-24T23:53:55.907Z,8.03
2017-12-24T23:58:57.727Z,7.77
